Panama City, FL

9:59 PM CDT on April 26, 2017 (GMT -0500)
| | Change Station
Active Advisory: Coastal Hazard Statement Active Notice: Coastal Hazard Statement

Elev -9999 ft 0.00 °N, 0.00 °E | Updated

Overcast
Overcast
°F
Feels Like °F
N
Wind Variable Wind from North
Gusts mph

Today
High -- | Low -- °F
--% Chance of Precip.
Yesterday
High -- | Low -- °F
Precip. -- in
Pressure 29.84 in
Visibility 10.0 miles
Clouds Overcast 1400 ft
Dew Point Not available.
Humidity Not available.
Rainfall --
Snow Depth Not available.
6:03 AM 7:16 PM
New Moon, 1% visible
METAR KTDR 270256Z AUTO 16010KT 10SM OVC014 23/21 A2983 RMK AO2 SLP105 T02270205 53007 $
Pressure 29.84 in
Visibility 10.0 miles
Clouds Overcast 1400 ft
Dew Point Not available.
Humidity Not available.
Rainfall --
Snow Depth Not available.
6:03 AM 7:16 PM
New Moon, 1% visible
METAR KTDR 270256Z AUTO 16010KT 10SM OVC014 23/21 A2983 RMK AO2 SLP105 T02270205 53007 $

Get Your Daily Forecast Email!

Thanks for signing up!

Be on the lookout for a verification email in your inbox.

You'll start receiving severe weather alerts in your inbox..

×

10-Day Weather Forecast

Almanac

Astronomy

Apr. 26, 2017 Rise Set
Actual Time
Civil Twilight
Nautical Twilight
Astronomical Twilight
Moon
Length of Visible Light
Length of Day
Tomorrow will be .
, % of the Moon is Illuminated

Today's Extremes

State Highs State Lows

Community

WunderPhotos

WunderBlog® & News

Nearby

Air Quality

  Air Quality AQ Index Pollutant
Not available.

Snow Depth

Station Depth Elevation

Earthquake Activity

City Distance Mag. Time & Date
Minimum magnitude displayed is 2.5.

Coastal Water Temperatures

Place Temperature

Stations

Nearby Weather Stations

Station Location Temp. Windchill Dew Point Humidity Wind Precip. Elev Updated Type
                   

Watches & Warnings

Coastal Hazard Statement
Issued: 9:41 AM CDT Apr. 26, 2017 – National Weather Service

... High rip current risk remains in effect through late tonight...

* timing... through tonight and possibly through Thursday

* impacts... increased chance for dangerous rip currents

Precautionary/preparedness actions...

There is a high risk of rip currents.

Rip currents are powerful channels of water flowing quickly away
from shore. They occur most often at low spots or breaks in The
Sandbar... as well as in the vicinity of jetties and piers.

Heed the advice of lifeguards... beach patrol flags... and signs
before entering the water. If caught in a rip current do not swim
against it. Face the shore and signal for help. Float or tread
water until the current ends or until rescued.